createdAt,value
2018-04-20T00:00:35.875Z,10.47
2018-04-20T00:03:05.043Z,9.57
2018-04-20T00:05:33.255Z,11.80
2018-04-20T00:08:02.215Z,9.33
2018-04-20T00:10:34.307Z,10.10
2018-04-20T00:13:03.592Z,9.97
2018-04-20T00:15:31.771Z,9.60
2018-04-20T00:18:00.007Z,9.67
2018-04-20T00:20:28.225Z,10.17
2018-04-20T00:22:56.423Z,10.33
2018-04-20T00:25:25.940Z,9.90
2018-04-20T00:27:54.558Z,9.67
2018-04-20T00:30:22.768Z,9.83
2018-04-20T00:32:51.042Z,10.07
2018-04-20T00:35:20.046Z,9.93
2018-04-20T00:37:49.003Z,9.70
2018-04-20T00:40:17.279Z,10.30
2018-04-20T00:42:45.535Z,9.97
2018-04-20T00:45:13.815Z,10.60
2018-04-20T00:47:42.752Z,10.03
2018-04-20T00:50:11.053Z,13.23
2018-04-20T00:52:39.254Z,10.33
2018-04-20T00:55:07.524Z,9.90
2018-04-20T00:57:35.827Z,10.83
2018-04-20T01:00:04.022Z,9.67
2018-04-20T01:02:33.484Z,9.93
2018-04-20T01:05:01.778Z,10.50
2018-04-20T01:07:29.955Z,10.23
2018-04-20T01:09:58.191Z,11.47
2018-04-20T01:12:26.529Z,10.90
2018-04-20T01:14:54.835Z,12.10
2018-04-20T01:17:23.894Z,10.87
2018-04-20T01:19:52.083Z,11.30
2018-04-20T01:22:21.162Z,10.83
2018-04-20T01:24:49.422Z,12.07
2018-04-20T01:27:17.619Z,11.20
2018-04-20T01:29:45.835Z,11.07
2018-04-20T01:32:16.504Z,11.53
2018-04-20T01:34:44.722Z,12.77
2018-04-20T01:37:13.696Z,11.50
2018-04-20T01:39:42.047Z,11.63
2018-04-20T01:42:10.207Z,12.97
2018-04-20T01:44:38.435Z,12.33
2018-04-20T01:47:07.451Z,12.13
2018-04-20T01:49:35.697Z,11.73
2018-04-20T01:52:04.700Z,11.93
2018-04-20T01:54:33.891Z,12.37
2018-04-20T01:57:02.950Z,12.73
2018-04-20T01:59:31.196Z,12.20
2018-04-20T02:01:59.414Z,14.27
2018-04-20T02:04:27.763Z,12.13
2018-04-20T02:06:56.031Z,11.60
2018-04-20T02:09:24.255Z,11.50
2018-04-20T02:11:52.450Z,11.80
2018-04-20T02:14:21.443Z,11.93
2018-04-20T02:16:50.618Z,12.27
2018-04-20T02:19:18.822Z,12.97
2018-04-20T02:21:47.887Z,11.90
2018-04-20T02:24:16.119Z,11.73
2018-04-20T02:26:44.363Z,14.77
2018-04-20T02:29:13.535Z,11.93
2018-04-20T02:31:41.769Z,14.63
2018-04-20T02:34:10.003Z,12.40
2018-04-20T02:36:39.186Z,12.90
2018-04-20T02:39:08.717Z,12.43
2018-04-20T02:41:37.707Z,12.53
2018-04-20T02:44:06.727Z,11.83
2018-04-20T02:46:35.759Z,12.60
2018-04-20T02:49:03.967Z,12.30
2018-04-20T02:51:32.935Z,12.67
2018-04-20T02:54:01.241Z,12.63
2018-04-20T02:56:30.233Z,13.10
2018-04-20T02:58:59.367Z,12.47
2018-04-20T03:01:28.943Z,13.00
2018-04-20T03:03:57.907Z,13.70
2018-04-20T03:06:27.339Z,13.60
2018-04-20T03:08:56.347Z,12.73
2018-04-20T03:11:24.571Z,13.53
2018-04-20T03:13:52.767Z,14.10
2018-04-20T03:16:21.216Z,14.03
2018-04-20T03:18:49.420Z,13.10
2018-04-20T03:21:17.753Z,15.37
2018-04-20T03:23:45.983Z,14.47
2018-04-20T03:26:14.951Z,13.63
2018-04-20T03:28:43.161Z,16.23
2018-04-20T03:31:12.133Z,14.40
2018-04-20T03:33:40.395Z,14.63
2018-04-20T03:36:08.599Z,15.37
2018-04-20T03:38:37.595Z,14.30
2018-04-20T03:41:06.565Z,14.37
2018-04-20T03:43:34.763Z,14.17
2018-04-20T03:46:03.755Z,14.47
2018-04-20T03:48:32.719Z,14.47
2018-04-20T03:51:00.978Z,15.13
2018-04-20T03:53:29.203Z,14.40
2018-04-20T03:55:57.421Z,16.47
2018-04-20T03:58:25.623Z,16.10
2018-04-20T04:00:53.858Z,17.90
2018-04-20T04:03:22.108Z,16.23
2018-04-20T04:05:50.322Z,16.70
2018-04-20T04:08:18.819Z,15.40
2018-04-20T04:10:47.084Z,15.07
2018-04-20T04:13:15.306Z,15.33
2018-04-20T04:15:44.300Z,14.87
2018-04-20T04:18:25.032Z,15.00
2018-04-20T04:20:59.963Z,14.73
2018-04-20T04:23:39.947Z,14.43
2018-04-20T04:26:21.042Z,14.27
2018-04-20T04:28:49.991Z,14.70
2018-04-20T04:31:18.274Z,14.07
2018-04-20T04:33:46.489Z,13.47
2018-04-20T04:36:14.728Z,14.07
2018-04-20T04:38:43.083Z,14.37
2018-04-20T04:41:11.327Z,14.07
2018-04-20T04:43:39.528Z,15.03
2018-04-20T04:46:07.763Z,15.27
2018-04-20T04:48:36.348Z,16.07
2018-04-20T04:51:04.563Z,14.33
2018-04-20T04:53:32.768Z,15.30
2018-04-20T04:56:00.987Z,15.40
2018-04-20T04:58:29.235Z,15.87
2018-04-20T05:00:58.197Z,16.23
2018-04-20T05:03:26.489Z,15.87
2018-04-20T05:05:54.745Z,16.13
2018-04-20T05:08:24.185Z,16.73
2018-04-20T05:10:53.219Z,16.07
2018-04-20T05:13:21.475Z,17.57
2018-04-20T05:18:20.436Z,17.60
2018-04-20T05:20:48.636Z,17.27
2018-04-20T05:23:17.772Z,16.50
2018-04-20T05:25:46.068Z,19.83
2018-04-20T05:28:14.263Z,17.80
2018-04-20T05:30:42.520Z,17.67
2018-04-20T05:33:10.954Z,16.73
2018-04-20T05:35:39.273Z,16.67
2018-04-20T05:38:07.519Z,17.70
2018-04-20T05:40:35.842Z,17.33
2018-04-20T05:43:04.083Z,16.63
2018-04-20T05:45:32.359Z,17.40
2018-04-20T05:48:00.592Z,17.37
2018-04-20T05:50:29.667Z,16.97
2018-04-20T05:52:57.957Z,16.00
2018-04-20T05:55:26.264Z,17.00
2018-04-20T05:57:55.407Z,17.13
2018-04-20T06:00:23.656Z,15.90
2018-04-20T06:02:51.868Z,17.00
2018-04-20T06:05:20.067Z,16.63
2018-04-20T06:07:49.113Z,16.40
2018-04-20T06:10:17.464Z,16.67
2018-04-20T06:12:45.667Z,16.67
2018-04-20T06:15:13.880Z,17.80
2018-04-20T06:17:42.226Z,16.80
2018-04-20T06:20:11.139Z,14.97
2018-04-20T06:22:39.415Z,15.60
2018-04-20T06:25:08.539Z,15.63
2018-04-20T06:27:37.611Z,14.33
2018-04-20T06:30:05.971Z,14.67
2018-04-20T06:32:34.271Z,14.77
2018-04-20T06:35:02.451Z,14.70
2018-04-20T06:37:31.436Z,14.00
2018-04-20T06:39:59.779Z,13.47
2018-04-20T06:42:28.013Z,13.63
2018-04-20T06:44:56.983Z,13.40
2018-04-20T06:47:25.246Z,13.07
2018-04-20T06:49:53.446Z,12.67
2018-04-20T06:52:22.469Z,12.87
2018-04-20T06:54:50.765Z,12.10
2018-04-20T06:57:18.971Z,12.63
2018-04-20T06:59:47.163Z,13.47
2018-04-20T07:02:16.214Z,12.27
2018-04-20T07:04:44.472Z,12.37
2018-04-20T07:07:12.767Z,12.90
2018-04-20T07:09:41.039Z,11.80
2018-04-20T07:12:09.280Z,11.57
2018-04-20T07:14:37.466Z,11.77
2018-04-20T07:17:05.704Z,12.10
2018-04-20T07:19:33.927Z,11.77
2018-04-20T07:22:02.157Z,11.07
2018-04-20T07:24:30.468Z,11.33
2018-04-20T07:26:58.663Z,12.80
2018-04-20T07:29:26.928Z,10.43
2018-04-20T07:31:55.198Z,9.27
2018-04-20T07:34:23.382Z,10.73
2018-04-20T07:36:51.643Z,10.17
2018-04-20T07:39:19.899Z,8.67
2018-04-20T07:41:48.860Z,9.23
2018-04-20T07:44:17.308Z,10.57
2018-04-20T07:46:45.604Z,8.60
2018-04-20T07:49:13.800Z,8.43
2018-04-20T07:51:42.019Z,7.17
2018-04-20T07:54:10.289Z,6.90
2018-04-20T07:56:38.503Z,9.27
2018-04-20T07:59:06.699Z,9.03
2018-04-20T08:01:34.927Z,8.80
2018-04-20T08:04:03.115Z,6.67
2018-04-20T08:06:31.366Z,7.93
2018-04-20T08:09:00.399Z,8.00
2018-04-20T08:11:28.587Z,9.57
2018-04-20T08:13:56.885Z,12.23
2018-04-20T08:16:25.135Z,6.60
2018-04-20T08:18:53.319Z,7.17
2018-04-20T08:21:21.515Z,6.97
2018-04-20T08:23:50.482Z,8.80
2018-04-20T08:26:18.744Z,7.40
2018-04-20T08:28:46.939Z,7.70
2018-04-20T08:31:15.307Z,7.20
2018-04-20T08:33:43.531Z,5.30
2018-04-20T08:36:11.720Z,7.07
2018-04-20T08:38:39.943Z,5.77
2018-04-20T08:41:08.157Z,7.03
2018-04-20T08:43:37.151Z,9.93
2018-04-20T08:46:05.373Z,7.97
2018-04-20T08:48:33.696Z,6.73
2018-04-20T08:51:02.697Z,6.93
2018-04-20T08:53:33.064Z,7.63
2018-04-20T08:56:01.252Z,6.77
2018-04-20T08:58:29.448Z,8.10
2018-04-20T09:00:57.792Z,5.63
2018-04-20T09:03:25.979Z,6.17
2018-04-20T09:05:54.172Z,6.50
2018-04-20T09:08:22.387Z,6.67
2018-04-20T09:10:51.409Z,6.90
2018-04-20T09:13:19.679Z,8.70
2018-04-20T09:15:48.906Z,6.93
2018-04-20T09:18:17.335Z,10.13
2018-04-20T09:20:45.572Z,5.67
2018-04-20T09:23:13.972Z,9.20
2018-04-20T09:25:42.155Z,6.30
2018-04-20T09:28:10.442Z,6.80
2018-04-20T09:30:38.692Z,5.67
2018-04-20T09:33:07.716Z,5.87
2018-04-20T09:35:36.000Z,6.57
2018-04-20T09:38:04.216Z,6.53
2018-04-20T09:40:32.411Z,9.60
2018-04-20T09:43:01.403Z,5.63
2018-04-20T09:45:30.477Z,8.23
2018-04-20T09:47:58.672Z,4.97
2018-04-20T09:50:27.639Z,4.90
2018-04-20T09:52:55.839Z,5.77
2018-04-20T09:55:24.796Z,5.33
2018-04-20T09:57:53.063Z,3.77
2018-04-20T10:00:21.306Z,6.03
2018-04-20T10:02:49.844Z,5.13
2018-04-20T10:05:23.955Z,5.27
2018-04-20T10:07:52.247Z,6.73
2018-04-20T10:10:20.496Z,6.10
2018-04-20T10:12:48.849Z,5.20
2018-04-20T10:15:17.651Z,6.50
2018-04-20T10:17:46.148Z,7.43
2018-04-20T10:20:15.188Z,5.97
2018-04-20T10:22:44.191Z,5.90
2018-04-20T10:25:12.375Z,8.63
2018-04-20T10:30:06.560Z,5.00
2018-04-20T10:32:35.526Z,8.73
2018-04-20T10:35:03.731Z,5.40
2018-04-20T10:37:32.851Z,4.80
2018-04-20T10:40:01.099Z,6.80
2018-04-20T10:42:30.206Z,5.50
2018-04-20T10:44:59.222Z,6.33
2018-04-20T10:47:27.437Z,5.43
2018-04-20T10:49:55.732Z,5.77
2018-04-20T10:52:23.991Z,6.40
2018-04-20T10:54:52.207Z,4.90
2018-04-20T10:57:20.399Z,4.77
2018-04-20T10:59:48.627Z,8.30
2018-04-20T11:02:16.823Z,5.23
2018-04-20T11:04:45.878Z,6.33
2018-04-20T11:07:14.243Z,4.40
2018-04-20T11:09:42.464Z,4.07
2018-04-20T11:12:11.492Z,5.33
2018-04-20T11:14:42.320Z,4.47
2018-04-20T11:17:10.516Z,5.13
2018-04-20T11:19:38.829Z,7.00
2018-04-20T11:22:07.047Z,7.70
2018-04-20T11:24:35.296Z,4.73
2018-04-20T11:27:04.310Z,4.00
2018-04-20T11:29:32.501Z,5.77
2018-04-20T11:32:00.703Z,6.17
2018-04-20T11:34:29.055Z,5.07
2018-04-20T11:36:57.328Z,6.93
2018-04-20T11:39:25.641Z,4.83
2018-04-20T11:41:53.963Z,6.80
2018-04-20T11:44:22.167Z,4.50
2018-04-20T11:46:50.395Z,6.70
2018-04-20T11:49:19.399Z,6.50
2018-04-20T11:51:48.359Z,4.40
2018-04-20T11:54:16.548Z,5.73
2018-04-20T11:56:45.595Z,4.73
2018-04-20T11:59:13.908Z,6.73
2018-04-20T12:01:42.121Z,4.73
2018-04-20T12:04:10.395Z,4.00
2018-04-20T12:06:38.587Z,4.40
2018-04-20T12:09:06.892Z,4.67
2018-04-20T12:11:35.224Z,6.33
2018-04-20T12:14:03.472Z,3.70
2018-04-20T12:16:31.796Z,7.67
2018-04-20T12:19:01.390Z,4.30
2018-04-20T12:21:29.761Z,7.17
2018-04-20T12:23:58.918Z,8.20
2018-04-20T12:26:28.895Z,6.40
2018-04-20T12:28:57.840Z,6.10
2018-04-20T12:31:26.048Z,4.50
2018-04-20T12:33:55.095Z,8.07
2018-04-20T12:36:23.479Z,7.03
2018-04-20T12:38:51.702Z,6.97
2018-04-20T12:41:19.988Z,4.90
2018-04-20T12:43:48.322Z,6.53
2018-04-20T12:46:16.512Z,5.60
2018-04-20T12:48:45.515Z,6.17
2018-04-20T12:51:13.789Z,4.20
2018-04-20T12:53:41.912Z,6.83
2018-04-20T12:56:10.178Z,9.33
2018-04-20T12:58:39.307Z,10.97
2018-04-20T13:01:07.719Z,5.40
2018-04-20T13:03:35.947Z,4.13
2018-04-20T13:06:04.905Z,5.87
2018-04-20T13:08:33.567Z,6.73
2018-04-20T13:11:01.719Z,6.50
2018-04-20T13:13:29.905Z,9.57
2018-04-20T13:15:59.058Z,11.27
2018-04-20T13:18:28.113Z,5.70
2018-04-20T13:20:56.266Z,8.53
2018-04-20T13:23:25.239Z,6.43
2018-04-20T13:25:53.427Z,6.27
2018-04-20T13:28:22.406Z,6.23
2018-04-20T13:30:50.655Z,3.90
2018-04-20T13:33:18.849Z,4.27
2018-04-20T13:35:47.526Z,7.50
2018-04-20T13:38:15.794Z,7.73
2018-04-20T13:40:43.991Z,5.47
2018-04-20T13:43:12.195Z,7.47
2018-04-20T13:45:41.276Z,9.13
2018-04-20T13:48:09.467Z,7.13
2018-04-20T13:50:37.631Z,4.50
2018-04-20T13:53:06.199Z,6.07
2018-04-20T13:55:34.467Z,4.57
2018-04-20T13:58:02.739Z,6.30
2018-04-20T14:00:30.991Z,4.27
2018-04-20T14:03:00.227Z,5.87
2018-04-20T14:05:29.236Z,10.17
2018-04-20T14:07:57.503Z,6.13
2018-04-20T14:10:25.827Z,5.10
2018-04-20T14:12:54.808Z,9.00
2018-04-20T14:15:23.060Z,7.27
2018-04-20T14:17:51.287Z,7.70
2018-04-20T14:20:19.677Z,6.33
2018-04-20T14:22:47.904Z,8.20
2018-04-20T14:25:16.171Z,7.47
2018-04-20T14:27:44.444Z,3.93
2018-04-20T14:30:12.642Z,6.47
2018-04-20T14:32:41.167Z,4.43
2018-04-20T14:35:09.399Z,3.27
2018-04-20T14:37:37.595Z,5.90
2018-04-20T14:40:06.611Z,7.13
2018-04-20T14:42:34.821Z,8.93
2018-04-20T14:45:03.063Z,4.90
2018-04-20T14:47:31.293Z,5.30
2018-04-20T14:49:59.588Z,4.83
2018-04-20T14:52:28.586Z,5.33
2018-04-20T14:54:58.901Z,6.80
2018-04-20T14:57:27.902Z,8.40
2018-04-20T14:59:56.923Z,9.30
2018-04-20T15:02:25.319Z,9.20
2018-04-20T15:04:53.524Z,4.97
2018-04-20T15:07:22.480Z,4.27
2018-04-20T15:09:50.723Z,5.97
2018-04-20T15:12:18.958Z,3.73
2018-04-20T15:14:47.157Z,6.50
2018-04-20T15:17:16.236Z,11.23
2018-04-20T15:19:44.472Z,8.80
2018-04-20T15:22:12.717Z,5.93
2018-04-20T15:24:41.800Z,7.87
2018-04-20T15:27:09.972Z,6.83
2018-04-20T15:29:38.162Z,8.73
2018-04-20T15:32:07.167Z,8.30
2018-04-20T15:34:35.635Z,5.53
2018-04-20T15:37:04.675Z,6.53
2018-04-20T15:39:32.935Z,9.50
2018-04-20T15:42:01.228Z,4.77
2018-04-20T15:44:29.447Z,6.47
2018-04-20T15:46:58.491Z,6.43
2018-04-20T15:49:26.914Z,7.97
2018-04-20T15:51:55.251Z,11.30
2018-04-20T15:54:23.495Z,8.17
2018-04-20T15:56:51.687Z,5.87
2018-04-20T15:59:19.932Z,6.03
2018-04-20T16:01:52.675Z,6.80
2018-04-20T16:04:20.884Z,6.77
2018-04-20T16:06:49.884Z,6.47
2018-04-20T16:09:19.024Z,7.43
2018-04-20T16:11:47.236Z,7.17
2018-04-20T16:14:15.581Z,5.47
2018-04-20T16:16:44.851Z,5.40
2018-04-20T16:19:13.092Z,5.93
2018-04-20T16:21:41.307Z,7.97
2018-04-20T16:24:09.538Z,6.47
2018-04-20T16:26:37.775Z,4.77
2018-04-20T16:29:05.987Z,5.73
2018-04-20T16:31:34.366Z,6.30
2018-04-20T16:34:02.607Z,6.73
2018-04-20T16:36:30.999Z,5.27
2018-04-20T16:38:59.314Z,11.93
2018-04-20T16:41:27.484Z,6.07
2018-04-20T16:43:56.479Z,6.73
2018-04-20T16:46:25.670Z,6.17
2018-04-20T16:48:54.988Z,8.40
2018-04-20T16:51:23.991Z,7.73
2018-04-20T16:53:52.303Z,8.93
2018-04-20T16:56:20.503Z,8.57
2018-04-20T16:58:48.743Z,7.60
2018-04-20T17:01:17.096Z,7.10
2018-04-20T17:03:45.359Z,5.90
2018-04-20T17:06:14.435Z,8.90
2018-04-20T17:08:42.847Z,7.43
2018-04-20T17:11:11.035Z,8.20
2018-04-20T17:13:39.235Z,10.10
2018-04-20T17:16:07.488Z,8.37
2018-04-20T17:18:35.767Z,5.77
2018-04-20T17:21:04.009Z,10.07
2018-04-20T17:23:32.369Z,9.63
2018-04-20T17:26:00.625Z,8.60
2018-04-20T17:28:31.355Z,8.00
2018-04-20T17:31:00.396Z,6.10
